Weather at Heho Airport

Public forecast

Using degrees Celsius for public forecast. Weather courtesy of forecast.io.

Closest aviation weather report (METAR) to Heho Airport

Report is more than 2 hours old.

Closest report is Mandalay International Airport, 73.2 nm (135.7 km) NW. Retrieved 2021/01/26 11:30 UTC (5 hours ago):

VYMD 261130Z CALM 6000 NSC 28/15 Q1009 NOSIG

Closest aviation forecast (TAF) to Heho Airport

Closest forecast is Mandalay International Airport, 73.2 nm (135.7 km) NW. Retrieved 2021/01/26 12:00 UTC (5 hours ago):

TAF VYMD 261100Z 2612/2712 32004KT 6000 FEW020 TEMPO 2612/2618 32003KT 5000 HZ